Tonawanda, NY (14150)

12:32 PM EDT on September 20, 2014 (GMT -0400)
Mayors Park | Change Station
CLOSE
Current Station
Personal Weather Station
Location: North Tonawanda, NY
Elevation: 591 ft
Nearby Weather Stations

Elev 591 ft 43.02 °N, 78.84 °W | Updated 2 minutes ago

Mostly Cloudy
Mostly Cloudy
74.8 °F
Feels Like 77 °F
N
4.0
Wind Variable Wind from South
Gusts 8.0 mph

Today
High -- | Low -- °F
--% Chance of Precip.
Yesterday
High -- | Low -- °F
Precip. -- in
7:00 AM 7:16 PM
Waning Crescent, 11% visible
Pressure 30.00 in
Visibility 10.0 miles
Clouds Few 3300 ft
Few 17000 ft
Mostly Cloudy 21000 ft
Mostly Cloudy 25000 ft
Heat Index 77 °F
Dew Point 59 °F
Humidity 58%
Rainfall 0.00 in
Snow Depth Not available.
UV 3 out of 12
Pollen 4.70 out of 12
Ozone Good
PM2.5 Moderate
Flu Activity Not available.
METAR KBUF 201554Z 22019G30KT 10SM FEW033 FEW170 BKN210 BKN250 23/14 A3000 RMK AO2 PK WND 24030/1551 SLP158 T02280139

More Conditions Fewer Conditions

Pressure 30.00 in
Visibility 10.0 miles
Clouds Few 3300 ft
Few 17000 ft
Mostly Cloudy 21000 ft
Mostly Cloudy 25000 ft
Heat Index 77 °F
Dew Point 59 °F
Humidity 58%
Rainfall 0.00 in
Snow Depth Not available.
UV 3 out of 12
Pollen 4.70 out of 12
Ozone Good
PM2.5 Moderate
Flu Activity Not available.
METAR KBUF 201554Z 22019G30KT 10SM FEW033 FEW170 BKN210 BKN250 23/14 A3000 RMK AO2 PK WND 24030/1551 SLP158 T02280139

More Conditions Fewer Conditions

10-Day Weather Forecast

Almanac

Astronomy

Sep. 20, 2014 Rise Set
Actual Time 7:00 AM EDT 7:16 PM EDT
Civil Twilight 6:32 AM EDT 7:44 PM EDT
Nautical Twilight 5:58 AM EDT 8:17 PM EDT
Astronomical Twilight 5:24 AM EDT 8:52 PM EDT
Moon 3:33 AM EDT 5:22 PM EDT
Length of Visible Light 13h 12m
Length of Day
12h 15m
Tomorrow will be 2m 55s shorter.
Waning Crescent, 11% of the Moon is Illuminated
Today
Waning Crescent
Sep 24
New
Oct 1
First Quarter
Oct 8
Full
Oct 15
Last Quarter

Today's Extremes

State Highs State Lows

Community

WunderPhotos

Upload Photos

1,754,892 photos uploaded!

Nearby

Air Quality

  Air Quality AQ Index Pollutant
Yesterday Good
OZONE
Yesterday Good
PM2.5
Current Moderate
PM2.5
Current Good
OZONE
Saturday Good
OZONE
Saturday Good
PM2.5
Sunday Good
PM2.5
Sunday Good
OZONE
Monday Good
PM2.5
Monday Good
OZONE

Snow Depth

Station Depth Elevation
No new snow has been reported.

Earthquake Activity

City Distance Mag. Time & Date
No recent earthquake activity has been reported nearby.
Minimum magnitude displayed is 2.5.

Coastal Water Temperatures

Place Temperature
Buffalo, NY 66.9 °F

Nearby Weather Stations